Time;durP1;ratioP1;P1;durP2;ratioP2;P2;SDS_P1;SDS_P2;PMS_P1;PMS_P2;Temp;Humidity;BMP_temperature;BMP_pressure;BME280_temperature;BME280_humidity;BME280_pressure;Samples;Min_cycle;Max_cycle;Signal;HPM_P1;HPM_P2
2021/12/11 00:02:27;;;;;;;11.67;8.07;;;;;;;1.21;56.89;99276.66;10513610;28;20319;-81
2021/12/11 00:07:30;;;;;;;10.37;7.20;;;;;;;1.28;57.32;99283.50;10540929;28;20888;-81
2021/12/11 00:12:37;;;;;;;10.63;7.03;;;;;;;1.25;57.24;99295.16;10510300;28;20603;-81
2021/12/11 00:17:39;;;;;;;9.20;7.07;;;;;;;1.20;57.33;99313.72;10512141;28;20288;-80
2021/12/11 00:22:42;;;;;;;10.83;6.93;;;;;;;1.24;57.66;99325.88;10504430;28;20304;-81
2021/12/11 00:27:47;;;;;;;10.87;7.43;;;;;;;1.21;57.80;99343.03;10490019;28;20602;-80
2021/12/11 00:32:58;;;;;;;11.40;7.30;;;;;;;1.15;57.53;99339.47;10479454;28;20716;-80
2021/12/11 00:38:13;;;;;;;10.97;7.20;;;;;;;1.25;57.20;99352.44;10504797;28;20261;-81
2021/12/11 00:43:20;;;;;;;12.43;6.67;;;;;;;1.28;56.78;99355.44;10501209;28;20547;-81
2021/12/11 00:48:25;;;;;;;10.77;7.00;;;;;;;1.25;57.74;99361.56;10502037;28;20697;-79
2021/12/11 00:53:38;;;;;;;9.00;7.33;;;;;;;1.04;57.99;99376.59;10502275;28;20279;-83
2021/12/11 00:58:42;;;;;;;9.43;6.53;;;;;;;0.91;58.74;99391.84;10487950;28;20245;-82
2021/12/11 01:03:53;;;;;;;8.93;6.50;;;;;;;1.14;57.69;99405.03;10483198;28;20242;-80
2021/12/11 01:09:00;;;;;;;8.90;6.23;;;;;;;1.17;57.65;99414.69;10500955;28;20547;-81
2021/12/11 01:14:32;;;;;;;9.60;6.30;;;;;;;1.06;57.89;99424.16;10495158;28;20281;-81
2021/12/11 01:19:39;;;;;;;8.60;5.97;;;;;;;0.99;58.23;99438.28;10497412;28;20246;-81
2021/12/11 01:24:45;;;;;;;9.13;6.77;;;;;;;1.24;58.36;99450.38;10494964;28;20294;-79
2021/12/11 01:29:55;;;;;;;9.80;6.20;;;;;;;1.27;58.75;99467.22;10499553;28;20216;-79
2021/12/11 01:34:59;;;;;;;9.83;6.13;;;;;;;1.31;58.71;99473.03;10486267;28;20260;-80
2021/12/11 01:40:06;;;;;;;8.87;6.70;;;;;;;1.43;59.64;99496.50;10482568;28;20245;-79
2021/12/11 01:45:12;;;;;;;10.57;7.47;;;;;;;1.28;61.69;99512.31;10500587;28;20956;-79
2021/12/11 01:50:30;;;;;;;14.67;8.03;;;;;;;1.86;60.98;99522.63;10493322;28;20261;-79
2021/12/11 01:55:44;;;;;;;10.93;7.83;;;;;;;1.93;60.54;99527.03;10476470;28;20207;-80
2021/12/11 02:00:50;;;;;;;8.60;7.03;;;;;;;1.63;62.26;99539.91;10498256;28;20250;-79
2021/12/11 02:05:52;;;;;;;11.17;8.40;;;;;;;1.78;61.23;99562.00;10494342;28;20230;-79
2021/12/11 02:11:08;;;;;;;10.80;7.73;;;;;;;1.52;62.61;99569.56;10493516;28;20214;-79
2021/12/11 02:16:19;;;;;;;9.97;7.63;;;;;;;1.82;62.82;99576.09;10513043;28;20256;-81
2021/12/11 02:21:35;;;;;;;12.23;8.77;;;;;;;1.81;62.69;99586.34;10498244;28;20258;-81
2021/12/11 02:26:39;;;;;;;11.07;8.13;;;;;;;1.49;63.00;99599.75;10515101;28;20197;-81
2021/12/11 02:32:07;;;;;;;10.70;7.53;;;;;;;1.54;62.68;99608.84;10523670;28;20296;-81
2021/12/11 02:37:24;;;;;;;12.30;8.67;;;;;;;1.67;62.55;99618.50;10512614;28;20264;-82
2021/12/11 02:42:52;;;;;;;10.93;7.67;;;;;;;2.04;61.60;99629.22;10511066;28;20254;-81
2021/12/11 02:48:10;;;;;;;12.07;8.13;;;;;;;1.70;62.98;99629.03;10501066;28;20627;-80
2021/12/11 02:53:33;;;;;;;12.00;8.40;;;;;;;1.73;62.58;99627.66;10495615;28;20194;-80
2021/12/11 02:58:42;;;;;;;12.87;7.90;;;;;;;1.84;61.92;99632.03;10517977;28;20668;-79
2021/12/11 03:03:51;;;;;;;12.97;9.60;;;;;;;1.70;62.29;99651.19;10515104;28;20258;-80
2021/12/11 03:08:57;;;;;;;12.80;9.17;;;;;;;1.70;62.56;99656.72;10539977;28;20256;-80
2021/12/11 03:14:03;;;;;;;13.53;9.03;;;;;;;1.68;62.91;99656.16;10520910;28;20709;-80
2021/12/11 03:19:07;;;;;;;14.13;9.03;;;;;;;1.16;64.00;99667.56;10507635;28;20194;-80
2021/12/11 03:24:10;;;;;;;12.30;9.03;;;;;;;1.64;63.11;99671.69;10537694;28;20194;-80
2021/12/11 03:29:13;;;;;;;14.30;10.37;;;;;;;1.61;63.19;99686.09;10507741;28;20525;-81
2021/12/11 03:34:24;;;;;;;12.63;9.93;;;;;;;1.55;63.38;99695.50;10520065;28;20224;-81
2021/12/11 03:39:36;;;;;;;14.10;10.67;;;;;;;1.72;62.52;99703.50;10522181;28;20222;-81
2021/12/11 03:44:40;;;;;;;17.73;10.20;;;;;;;1.78;62.58;99708.78;10504999;28;20240;-82
2021/12/11 03:49:42;;;;;;;18.43;10.07;;;;;;;1.60;63.57;99723.19;10486806;28;20202;-82
2021/12/11 03:54:47;;;;;;;15.47;10.67;;;;;;;1.57;63.16;99726.50;10521829;28;20206;-82
2021/12/11 03:59:50;;;;;;;17.73;10.60;;;;;;;1.52;63.85;99737.59;10531648;28;20226;-81
2021/12/11 04:04:56;;;;;;;15.47;10.70;;;;;;;1.23;64.62;99744.75;10511118;28;20715;-80
2021/12/11 04:09:58;;;;;;;15.60;10.57;;;;;;;1.60;64.22;99750.88;10512569;28;20245;-81
2021/12/11 04:15:00;;;;;;;18.63;11.27;;;;;;;1.37;65.16;99760.56;10541687;28;20287;-81
2021/12/11 04:20:08;;;;;;;19.87;11.13;;;;;;;1.60;63.78;99761.13;10495992;28;20258;-81
2021/12/11 04:25:12;;;;;;;16.03;10.97;;;;;;;1.47;64.48;99779.09;10496054;28;20271;-81
2021/12/11 04:30:16;;;;;;;16.30;11.70;;;;;;;1.62;63.52;99781.88;10495530;28;20244;-82
2021/12/11 04:35:20;;;;;;;19.23;11.37;;;;;;;1.58;63.82;99788.25;10525124;28;20206;-81
2021/12/11 04:40:29;;;;;;;15.33;10.17;;;;;;;1.10;64.56;99791.22;10510091;28;20226;-82
2021/12/11 04:45:36;;;;;;;18.33;10.53;;;;;;;1.87;62.88;99801.28;10522880;28;20203;-82
2021/12/11 04:50:47;;;;;;;19.50;10.90;;;;;;;1.66;63.23;99805.13;10507286;28;20248;-81
2021/12/11 04:56:13;;;;;;;17.63;11.73;;;;;;;1.72;63.13;99815.09;10507303;28;20245;-80
2021/12/11 05:01:35;;;;;;;18.80;11.20;;;;;;;1.55;63.67;99833.91;10520355;28;20234;-80
2021/12/11 05:17:26;;;;;;;21.50;11.57;;;;;;;1.72;62.06;99856.66;10432425;28;20274;-79
2021/12/11 05:22:29;;;;;;;18.90;10.97;;;;;;;1.74;62.06;99868.28;10440560;28;20309;-81
2021/12/11 05:27:31;;;;;;;26.43;11.93;;;;;;;1.61;62.08;99867.97;10438535;28;20207;-82
2021/12/11 05:32:34;;;;;;;23.70;11.67;;;;;;;1.37;62.83;99878.72;10440041;28;20204;-79
2021/12/11 05:37:37;;;;;;;21.93;11.47;;;;;;;1.32;62.67;99887.00;10450636;28;20597;-80
2021/12/11 05:42:40;;;;;;;22.10;11.67;;;;;;;1.01;62.38;99908.19;10429192;28;20521;-79
2021/12/11 05:47:43;;;;;;;23.63;11.43;;;;;;;1.34;62.40;99909.72;10423215;28;20265;-81
2021/12/11 05:52:48;;;;;;;20.97;12.33;;;;;;;1.21;63.30;99930.41;10428825;28;20596;-81
2021/12/11 05:57:53;;;;;;;20.90;11.93;;;;;;;1.02;63.06;99929.19;10447684;28;20203;-81
2021/12/11 06:02:55;;;;;;;20.07;10.80;;;;;;;1.07;61.90;99946.66;10414425;28;20316;-81
2021/12/11 06:07:58;;;;;;;15.07;10.43;;;;;;;0.79;62.16;99952.59;10441399;28;20250;-81
2021/12/11 06:13:00;;;;;;;17.60;11.70;;;;;;;0.88;61.64;99966.75;10451561;28;20218;-81
2021/12/11 06:18:04;;;;;;;19.97;11.90;;;;;;;1.01;61.49;99969.06;10496141;28;20231;-81
2021/12/11 06:23:06;;;;;;;23.47;12.93;;;;;;;0.89;62.35;99987.75;10510611;28;20636;-81
2021/12/11 06:28:09;;;;;;;22.37;12.60;;;;;;;0.65;62.19;99992.84;10531302;28;20507;-81
2021/12/11 06:33:12;;;;;;;21.67;13.33;;;;;;;0.58;63.29;100014.38;10503630;28;20295;-81
2021/12/11 06:38:18;;;;;;;25.67;14.43;;;;;;;0.52;64.35;100020.94;10511940;28;20882;-81
2021/12/11 06:43:22;;;;;;;33.87;15.53;;;;;;;0.96;63.86;100033.47;10513994;28;20343;-81
2021/12/11 06:48:24;;;;;;;32.73;16.17;;;;;;;0.77;65.76;100040.50;10480940;28;20256;-80
2021/12/11 06:53:48;;;;;;;37.43;17.53;;;;;;;0.28;67.14;100054.44;10498815;28;20199;-81
2021/12/11 06:58:51;;;;;;;36.07;17.30;;;;;;;0.79;67.23;100068.72;10503003;28;20233;-81
2021/12/11 07:03:56;;;;;;;35.17;17.23;;;;;;;0.56;68.46;100082.88;10492506;28;20262;-81
2021/12/11 07:09:00;;;;;;;36.83;17.83;;;;;;;0.54;69.41;100096.13;10511515;28;20568;-81
2021/12/11 07:14:02;;;;;;;43.37;19.17;;;;;;;0.69;69.18;100094.34;10474760;28;20331;-80
2021/12/11 07:19:06;;;;;;;46.73;20.37;;;;;;;1.26;67.71;100101.19;10510332;28;20206;-81
2021/12/11 07:24:11;;;;;;;45.60;21.10;;;;;;;0.72;69.07;100115.13;10509913;28;20307;-81
2021/12/11 07:29:15;;;;;;;59.07;22.60;;;;;;;0.37;70.16;100110.03;10508254;28;20234;-80
2021/12/11 07:34:19;;;;;;;48.53;20.83;;;;;;;1.12;68.91;100118.25;10479545;28;20203;-82
2021/12/11 07:39:22;;;;;;;53.60;22.37;;;;;;;1.24;68.47;100128.28;10494416;28;20234;-82
2021/12/11 07:44:26;;;;;;;50.60;23.17;;;;;;;1.26;69.04;100148.22;10525253;28;20280;-82
2021/12/11 07:49:28;;;;;;;48.17;22.23;;;;;;;1.69;67.12;100163.72;10509842;28;20234;-80
2021/12/11 07:54:30;;;;;;;52.83;22.93;;;;;;;1.47;68.53;100177.72;10501206;28;20238;-81
2021/12/11 07:59:33;;;;;;;48.53;21.67;;;;;;;1.27;69.56;100194.16;10497467;28;20230;-81
2021/12/11 08:04:35;;;;;;;55.70;24.13;;;;;;;1.60;67.83;100193.84;10510724;28;20254;-81
2021/12/11 08:09:38;;;;;;;50.77;22.87;;;;;;;2.07;66.90;100210.50;10504640;28;20248;-81
2021/12/11 08:14:41;;;;;;;57.03;22.33;;;;;;;1.46;68.70;100220.31;10481529;28;20349;-81
2021/12/11 08:19:44;;;;;;;53.23;22.47;;;;;;;2.14;67.54;100215.81;10503620;28;20223;-82
2021/12/11 08:24:46;;;;;;;59.20;23.53;;;;;;;2.07;66.85;100226.28;10486643;28;20258;-81
2021/12/11 08:29:51;;;;;;;62.70;23.53;;;;;;;2.00;66.79;100237.63;10501353;28;20284;-82
2021/12/11 08:34:53;;;;;;;53.17;23.20;;;;;;;2.28;66.86;100236.41;10502172;28;20271;-82
2021/12/11 08:39:56;;;;;;;56.97;23.40;;;;;;;1.94;67.72;100251.69;10503427;28;20234;-79
2021/12/11 08:45:05;;;;;;;56.47;23.23;;;;;;;2.13;68.10;100250.16;10502579;28;20250;-81
2021/12/11 08:50:11;;;;;;;55.40;25.07;;;;;;;2.34;67.41;100259.44;10500228;28;20241;-81
2021/12/11 08:55:17;;;;;;;47.93;20.93;;;;;;;2.02;67.77;100267.84;10510493;28;20299;-79
2021/12/11 09:00:28;;;;;;;51.50;22.93;;;;;;;2.18;67.98;100286.19;10480319;28;20234;-80
2021/12/11 09:06:11;;;;;;;52.93;22.87;;;;;;;2.49;66.95;100285.31;10501670;28;20300;-80
2021/12/11 09:11:29;;;;;;;51.80;22.03;;;;;;;1.69;68.87;100294.72;10486688;28;20282;-80
2021/12/11 09:16:49;;;;;;;57.37;26.93;;;;;;;2.09;68.26;100307.22;10518099;28;20261;-81
2021/12/11 09:22:01;;;;;;;57.93;28.27;;;;;;;2.71;66.58;100310.09;10522497;28;20359;-81
2021/12/11 09:27:05;;;;;;;51.67;24.27;;;;;;;2.05;68.40;100317.19;10500551;28;20307;-81
2021/12/11 09:32:12;;;;;;;58.33;28.53;;;;;;;2.10;68.28;100326.34;10531953;28;20589;-81
2021/12/11 09:37:15;;;;;;;48.00;23.80;;;;;;;2.07;68.63;100332.41;10524747;28;20230;-80
2021/12/11 09:42:17;;;;;;;54.53;23.47;;;;;;;2.49;68.00;100334.38;10486179;28;20271;-81
2021/12/11 09:47:23;;;;;;;51.07;22.83;;;;;;;2.59;67.55;100346.38;10500167;28;20234;-80
2021/12/11 09:52:27;;;;;;;48.33;23.30;;;;;;;2.30;68.04;100347.84;10515738;28;20234;-80
2021/12/11 09:57:33;;;;;;;48.23;24.50;;;;;;;2.69;68.27;100356.72;10475870;28;20202;-80
2021/12/11 10:02:35;;;;;;;48.10;23.43;;;;;;;2.96;65.96;100350.97;10495842;28;20292;-81
2021/12/11 10:07:49;;;;;;;44.07;23.00;;;;;;;2.79;67.09;100367.84;10496406;28;20215;-80
2021/12/11 10:12:56;;;;;;;48.23;21.17;;;;;;;3.03;66.00;100368.22;10471921;28;20561;-82
2021/12/11 10:18:04;;;;;;;48.13;22.10;;;;;;;2.90;67.01;100360.41;10514147;28;20230;-82
2021/12/11 10:23:09;;;;;;;45.97;22.03;;;;;;;3.07;65.88;100361.03;10481640;28;20320;-83
2021/12/11 10:28:17;;;;;;;47.23;21.53;;;;;;;3.04;65.86;100361.59;10495781;28;20207;-82
2021/12/11 10:33:23;;;;;;;51.73;22.03;;;;;;;3.67;63.39;100356.75;10497410;28;20762;-82
2021/12/11 10:38:25;;;;;;;47.93;22.97;;;;;;;3.54;64.27;100363.66;10502250;28;20253;-82
2021/12/11 10:43:53;;;;;;;50.57;22.23;;;;;;;3.81;63.96;100363.44;10506651;28;20589;-82
2021/12/11 10:48:58;;;;;;;46.00;22.90;;;;;;;3.71;64.81;100363.44;10516401;28;20230;-82
2021/12/11 10:54:00;;;;;;;46.17;21.50;;;;;;;3.36;65.29;100366.09;10504271;28;20536;-83
2021/12/11 10:59:07;;;;;;;53.07;23.63;;;;;;;3.20;66.00;100371.63;10483530;28;20678;-83
2021/12/11 11:04:16;;;;;;;43.40;21.53;;;;;;;3.82;64.36;100370.66;10474004;28;20300;-83
2021/12/11 11:09:19;;;;;;;43.83;21.47;;;;;;;3.82;63.72;100381.78;10491197;28;20207;-81
2021/12/11 11:14:23;;;;;;;46.27;22.33;;;;;;;3.94;65.22;100378.72;10499927;28;20250;-81
2021/12/11 11:19:27;;;;;;;43.53;19.77;;;;;;;3.82;65.53;100380.94;10500811;28;20291;-81
2021/12/11 11:24:33;;;;;;;41.10;20.37;;;;;;;4.44;63.17;100383.47;10488458;28;20292;-81
2021/12/11 11:29:42;;;;;;;41.40;20.97;;;;;;;4.50;63.50;100382.38;10526518;28;20199;-83
2021/12/11 11:34:45;;;;;;;37.90;19.50;;;;;;;3.75;66.83;100375.63;10497836;28;20659;-81
2021/12/11 11:39:48;;;;;;;39.97;20.00;;;;;;;3.76;68.46;100371.75;10491650;28;20507;-82
2021/12/11 11:44:50;;;;;;;25.40;13.90;;;;;;;3.98;68.96;100377.91;10519591;28;20569;-83
2021/12/11 11:49:58;;;;;;;23.70;13.73;;;;;;;3.64;69.93;100393.41;10502157;28;20242;-83
2021/12/11 11:55:06;;;;;;;23.87;13.57;;;;;;;4.64;67.11;100397.38;10488557;28;20270;-82
2021/12/11 12:00:18;;;;;;;27.13;14.80;;;;;;;4.37;67.71;100407.97;10503969;28;20626;-83
2021/12/11 12:05:20;;;;;;;22.40;14.40;;;;;;;4.79;66.52;100412.34;10504074;28;20303;-81
2021/12/11 12:10:26;;;;;;;25.80;15.43;;;;;;;4.60;66.40;100415.72;10489963;28;20238;-82
2021/12/11 12:15:31;;;;;;;25.03;13.93;;;;;;;4.92;65.08;100422.88;10489441;28;20719;-82
2021/12/11 12:20:35;;;;;;;24.97;14.80;;;;;;;4.89;65.14;100437.38;10491018;28;20626;-83
2021/12/11 12:25:42;;;;;;;22.60;13.23;;;;;;;5.02;64.98;100445.16;10500119;28;20303;-85
2021/12/11 12:30:52;;;;;;;21.03;13.07;;;;;;;5.12;64.08;100441.50;10497522;28;20291;-85
2021/12/11 12:35:56;;;;;;;23.60;13.07;;;;;;;4.86;64.52;100449.91;10501920;28;20265;-84
2021/12/11 12:41:11;;;;;;;21.20;12.43;;;;;;;5.27;62.70;100450.66;10501083;28;20248;-83
2021/12/11 12:46:16;;;;;;;26.47;14.70;;;;;;;4.99;64.19;100452.13;10491783;28;20738;-85
2021/12/11 12:51:19;;;;;;;26.67;15.10;;;;;;;4.90;65.04;100464.13;10490162;28;20551;-83
2021/12/11 12:56:26;;;;;;;31.03;17.93;;;;;;;4.57;66.76;100471.94;10499754;28;20234;-84
2021/12/11 13:01:50;;;;;;;28.77;14.50;;;;;;;5.17;64.38;100464.56;10519373;28;20317;-85
2021/12/11 13:06:56;;;;;;;25.50;14.50;;;;;;;5.12;64.18;100481.31;10494913;28;20589;-84
2021/12/11 13:12:09;;;;;;;25.23;14.60;;;;;;;4.69;65.35;100491.13;10501766;28;20235;-85
2021/12/11 13:17:18;;;;;;;25.20;14.20;;;;;;;5.08;63.95;100488.56;10504076;28;20230;-83
2021/12/11 13:22:27;;;;;;;26.03;15.17;;;;;;;5.11;64.05;100501.94;10478236;28;20254;-85
2021/12/11 13:27:30;;;;;;;27.57;14.77;;;;;;;4.65;65.38;100520.59;10489985;28;20619;-85
2021/12/11 13:32:33;;;;;;;27.70;15.03;;;;;;;4.81;64.72;100532.59;10491313;28;20232;-83
2021/12/11 13:37:36;;;;;;;27.90;16.17;;;;;;;5.07;64.03;100537.84;10458010;28;20254;-84
2021/12/11 13:42:39;;;;;;;29.93;16.63;;;;;;;4.97;64.57;100546.22;10478871;28;20324;-85
2021/12/11 13:47:44;;;;;;;26.73;16.23;;;;;;;5.11;63.76;100543.69;10460978;28;20294;-83
2021/12/11 13:52:47;;;;;;;28.47;17.67;;;;;;;5.17;64.17;100558.44;10472810;28;20223;-82
2021/12/11 13:57:49;;;;;;;27.70;16.37;;;;;;;5.09;64.71;100573.78;10457573;28;20292;-84
2021/12/11 14:02:52;;;;;;;34.67;17.87;;;;;;;5.00;65.59;100575.47;10478356;28;20254;-81
2021/12/11 14:07:54;;;;;;;35.43;18.77;;;;;;;5.22;64.83;100578.78;10492571;28;20238;-83
2021/12/11 14:12:56;;;;;;;32.47;17.90;;;;;;;4.78;65.77;100577.66;10472485;28;20246;-81
2021/12/11 14:17:59;;;;;;;31.00;18.00;;;;;;;5.05;65.78;100583.78;10492154;28;20234;-81
2021/12/11 14:23:05;;;;;;;33.60;16.67;;;;;;;4.68;66.77;100586.84;10476701;28;20242;-81
2021/12/11 14:28:10;;;;;;;33.27;17.00;;;;;;;4.73;67.27;100598.00;10495867;28;20219;-84
2021/12/11 14:33:13;;;;;;;29.40;16.80;;;;;;;4.98;66.30;100603.56;10495291;28;20248;-84
2021/12/11 14:38:17;;;;;;;29.27;16.03;;;;;;;4.95;66.92;100606.06;10493123;28;20260;-83
2021/12/11 14:43:20;;;;;;;34.60;16.40;;;;;;;4.69;67.34;100616.34;10501397;28;20312;-83
2021/12/11 14:48:23;;;;;;;31.17;16.53;;;;;;;4.51;68.81;100620.50;10490337;28;20254;-83
2021/12/11 14:53:29;;;;;;;31.13;16.07;;;;;;;5.01;67.80;100633.66;10496543;28;20308;-83
2021/12/11 14:58:33;;;;;;;35.87;17.77;;;;;;;5.21;66.24;100649.53;10472872;28;20230;-83
2021/12/11 15:03:35;;;;;;;40.47;18.90;;;;;;;4.91;68.25;100675.38;10510964;28;20319;-83
2021/12/11 15:08:38;;;;;;;40.57;18.73;;;;;;;5.26;67.12;100674.59;10506466;28;20226;-81
2021/12/11 15:13:42;;;;;;;35.90;19.73;;;;;;;5.14;67.42;100671.25;10488834;28;20246;-83
2021/12/11 15:18:48;;;;;;;41.10;19.00;;;;;;;4.83;68.13;100689.03;10494590;28;20234;-83
2021/12/11 15:23:55;;;;;;;41.50;21.07;;;;;;;5.15;67.58;100688.81;10497884;28;20403;-82
2021/12/11 15:28:58;;;;;;;68.83;34.53;;;;;;;5.08;68.29;100700.19;10506333;28;20614;-84
2021/12/11 15:34:04;;;;;;;43.50;22.17;;;;;;;5.18;67.59;100702.16;10505469;28;20235;-83
2021/12/11 15:39:16;;;;;;;46.73;23.67;;;;;;;5.34;67.28;100704.69;10478239;28;20366;-83
2021/12/11 15:44:20;;;;;;;40.43;20.13;;;;;;;5.34;66.89;100709.41;10503228;28;20251;-83
2021/12/11 15:49:22;;;;;;;43.40;22.77;;;;;;;5.29;67.02;100729.78;10502919;28;20276;-83
2021/12/11 15:54:25;;;;;;;43.70;22.40;;;;;;;4.48;70.82;100734.28;10517432;28;20279;-84
2021/12/11 15:59:27;;;;;;;38.57;20.50;;;;;;;4.92;68.97;100745.81;10489924;28;20276;-84
2021/12/11 16:04:30;;;;;;;45.30;23.43;;;;;;;5.02;68.59;100749.50;10498182;28;20689;-81
2021/12/11 16:09:35;;;;;;;34.20;20.07;;;;;;;5.05;68.16;100762.84;10491006;28;20600;-82
2021/12/11 16:14:39;;;;;;;37.03;19.93;;;;;;;5.13;67.25;100767.06;10498314;28;20242;-82
2021/12/11 16:19:44;;;;;;;39.07;19.40;;;;;;;5.31;67.05;100772.09;10478976;28;20605;-85
2021/12/11 16:24:50;;;;;;;39.17;17.90;;;;;;;5.33;66.83;100769.88;10502025;28;20634;-82
2021/12/11 16:29:52;;;;;;;36.40;19.20;;;;;;;5.34;66.29;100768.75;10474537;28;20241;-82
2021/12/11 16:34:55;;;;;;;39.43;20.63;;;;;;;5.24;67.19;100777.09;10482022;28;20226;-82
2021/12/11 16:39:58;;;;;;;51.90;25.70;;;;;;;5.42;66.37;100784.91;10500837;28;20646;-82
2021/12/11 16:45:01;;;;;;;47.50;23.20;;;;;;;5.44;66.44;100796.63;10505980;28;20250;-83
2021/12/11 16:50:05;;;;;;;42.90;21.00;;;;;;;4.91;67.91;100799.84;10490069;28;20237;-83
2021/12/11 16:55:08;;;;;;;39.80;21.00;;;;;;;5.30;65.92;100808.56;10502479;28;20255;-82
2021/12/11 17:00:14;;;;;;;42.43;20.60;;;;;;;5.18;66.66;100822.75;10479820;28;20259;-82
2021/12/11 17:05:17;;;;;;;46.30;21.53;;;;;;;5.24;66.53;100824.47;10505840;28;20317;-81
2021/12/11 17:10:32;;;;;;;78.63;33.07;;;;;;;4.96;67.32;100833.28;10483787;28;20664;-82
2021/12/11 17:15:35;;;;;;;92.40;36.27;;;;;;;5.30;66.49;100842.84;10492591;28;20272;-82
2021/12/11 17:20:38;;;;;;;71.23;36.87;;;;;;;5.19;67.20;100852.28;10498470;28;20226;-82
2021/12/11 17:25:43;;;;;;;48.67;24.20;;;;;;;5.50;66.26;100853.22;10476425;28;20258;-83
2021/12/11 17:30:47;;;;;;;56.27;25.87;;;;;;;5.51;66.03;100846.53;10509328;28;20198;-83
2021/12/11 17:35:50;;;;;;;48.63;23.90;;;;;;;5.35;66.44;100856.81;10486475;28;20683;-83
2021/12/11 17:40:53;;;;;;;47.87;24.43;;;;;;;4.78;68.31;100856.00;10522278;28;20230;-83
2021/12/11 17:45:55;;;;;;;39.13;21.87;;;;;;;5.10;68.64;100860.34;10517079;28;20249;-82
2021/12/11 17:51:00;;;;;;;51.80;25.20;;;;;;;4.92;68.52;100873.91;10486797;28;20290;-83
2021/12/11 17:56:05;;;;;;;54.40;26.37;;;;;;;5.29;67.70;100877.41;10478343;28;20280;-82
2021/12/11 18:01:44;;;;;;;49.40;25.83;;;;;;;5.35;67.85;100879.09;10509543;28;20234;-82
2021/12/11 18:06:55;;;;;;;54.57;26.47;;;;;;;5.25;67.85;100884.63;10481117;28;20250;-82
2021/12/11 18:12:11;;;;;;;65.07;30.80;;;;;;;5.38;68.74;100889.69;10480402;28;20303;-82
2021/12/11 18:17:21;;;;;;;52.70;25.43;;;;;;;5.15;68.76;100884.59;10457265;28;20249;-83
2021/12/11 18:22:28;;;;;;;56.97;27.50;;;;;;;5.11;68.98;100891.81;10467062;28;20709;-83
2021/12/11 18:27:32;;;;;;;76.57;33.33;;;;;;;5.02;70.54;100896.25;10448660;28;20238;-81
2021/12/11 18:32:35;;;;;;;72.37;30.47;;;;;;;4.77;70.90;100898.91;10456120;28;20239;-83
2021/12/11 18:37:39;;;;;;;68.33;30.73;;;;;;;5.14;69.69;100894.06;10462279;28;20239;-81
2021/12/11 18:42:42;;;;;;;74.90;32.90;;;;;;;4.86;70.43;100897.28;10427633;28;20368;-83
2021/12/11 18:47:44;;;;;;;65.20;28.60;;;;;;;5.29;69.23;100913.63;10462160;28;20250;-82
2021/12/11 18:52:48;;;;;;;59.17;27.20;;;;;;;5.36;68.85;100905.84;10483679;28;20227;-82
2021/12/11 18:57:52;;;;;;;61.50;27.40;;;;;;;5.47;68.07;100920.66;10451258;28;20304;-79
2021/12/11 19:02:54;;;;;;;54.67;26.27;;;;;;;5.53;68.12;100924.28;10471612;28;20800;-82
2021/12/11 19:07:57;;;;;;;57.13;26.30;;;;;;;5.34;68.20;100926.72;10454765;28;20243;-80
2021/12/11 19:13:00;;;;;;;55.43;25.53;;;;;;;5.50;68.81;100941.56;10472318;28;20259;-83
2021/12/11 19:18:04;;;;;;;52.70;26.40;;;;;;;5.45;69.34;100945.16;10525197;28;20226;-82
2021/12/11 19:23:07;;;;;;;54.47;26.13;;;;;;;5.85;68.08;100938.06;10519047;28;20195;-84
2021/12/11 19:28:17;;;;;;;46.90;24.23;;;;;;;5.79;68.17;100940.00;10496053;28;20285;-82
2021/12/11 19:33:25;;;;;;;48.97;25.90;;;;;;;5.25;70.04;100940.34;10502178;28;20207;-81
2021/12/11 19:38:27;;;;;;;54.17;27.10;;;;;;;5.45;68.53;100951.56;10517676;28;20259;-83
2021/12/11 19:43:30;;;;;;;45.43;25.90;;;;;;;5.66;68.46;100954.44;10482238;28;20255;-83
2021/12/11 19:48:34;;;;;;;48.67;24.60;;;;;;;5.87;67.76;100972.91;10496946;28;20206;-82
2021/12/11 19:53:42;;;;;;;42.63;25.13;;;;;;;5.83;67.87;100971.78;10508371;28;20245;-83
2021/12/11 19:59:07;;;;;;;44.50;23.70;;;;;;;5.87;68.54;100980.44;10496905;28;20218;-82
2021/12/11 20:04:11;;;;;;;39.57;24.47;;;;;;;5.31;70.49;100983.81;10510824;28;20254;-82
2021/12/11 20:09:36;;;;;;;39.77;23.07;;;;;;;5.48;70.35;100996.72;10506102;28;20298;-81
2021/12/11 20:14:40;;;;;;;43.07;22.27;;;;;;;5.58;69.23;100988.41;10473876;28;20606;-82
2021/12/11 20:19:44;;;;;;;37.50;21.87;;;;;;;5.69;69.31;100996.53;10494958;28;20234;-83
2021/12/11 20:24:48;;;;;;;39.50;22.60;;;;;;;5.74;68.79;100999.34;10510250;28;20262;-84
2021/12/11 20:29:57;;;;;;;38.00;21.07;;;;;;;5.56;68.83;101007.34;10497892;28;20616;-84
2021/12/11 20:35:00;;;;;;;37.70;21.10;;;;;;;5.40;69.18;101004.50;10504944;28;20595;-85
2021/12/11 20:40:09;;;;;;;33.17;20.00;;;;;;;5.83;67.63;101013.63;10508331;28;20280;-84
2021/12/11 20:45:16;;;;;;;29.13;18.73;;;;;;;5.13;69.74;101009.38;10474738;28;20238;-83
2021/12/11 20:50:24;;;;;;;28.17;17.90;;;;;;;5.44;69.10;101011.19;10480909;28;20248;-83
2021/12/11 20:55:31;;;;;;;28.33;16.03;;;;;;;5.38;69.22;101005.88;10500435;28;20292;-82
2021/12/11 21:00:43;;;;;;;25.00;14.57;;;;;;;5.78;66.62;101022.81;10510139;28;20294;-82
2021/12/11 21:05:56;;;;;;;20.50;12.73;;;;;;;5.25;68.27;101015.56;10500729;28;20266;-81
2021/12/11 21:11:08;;;;;;;22.93;12.40;;;;;;;5.13;67.12;101014.94;10506911;28;20198;-83
2021/12/11 21:16:22;;;;;;;17.20;11.00;;;;;;;5.07;67.33;101029.94;10455113;28;20642;-82
2021/12/11 21:21:32;;;;;;;18.73;10.67;;;;;;;4.79;68.01;101030.28;10456906;28;20224;-81
2021/12/11 21:26:36;;;;;;;18.40;10.80;;;;;;;5.00;67.56;101034.91;10456763;28;20250;-82
2021/12/11 21:31:46;;;;;;;21.77;10.73;;;;;;;4.82;67.81;101029.75;10467492;28;20277;-82
2021/12/11 21:36:48;;;;;;;20.70;9.87;;;;;;;5.10;65.70;101032.19;10479570;28;20238;-80
2021/12/11 21:42:03;;;;;;;16.40;9.87;;;;;;;5.24;65.22;101038.97;10469863;28;20238;-80
2021/12/11 21:47:27;;;;;;;17.23;9.63;;;;;;;4.87;66.80;101035.38;10489575;28;20646;-81
2021/12/11 21:52:34;;;;;;;16.27;9.83;;;;;;;4.83;66.65;101048.13;10466515;28;20312;-83
2021/12/11 21:57:39;;;;;;;16.50;9.80;;;;;;;4.77;66.57;101057.56;10465822;28;20584;-82
2021/12/11 22:02:47;;;;;;;16.27;9.33;;;;;;;4.75;66.91;101041.13;10467233;28;20305;-83
2021/12/11 22:07:49;;;;;;;21.47;9.57;;;;;;;5.36;65.55;101047.94;10465609;28;20323;-83
2021/12/11 22:12:53;;;;;;;18.93;9.27;;;;;;;5.10;66.14;101072.00;10493755;28;20249;-83
2021/12/11 22:17:56;;;;;;;15.93;8.67;;;;;;;4.87;66.55;101071.56;10513893;28;20234;-83
2021/12/11 22:22:58;;;;;;;15.83;9.03;;;;;;;4.86;67.45;101042.03;10517224;28;20218;-83
2021/12/11 22:28:01;;;;;;;18.87;9.47;;;;;;;5.05;65.54;101058.03;10517897;28;20303;-82
2021/12/11 22:33:07;;;;;;;15.77;9.33;;;;;;;4.56;68.69;101060.16;10501858;28;20527;-84
2021/12/11 22:38:10;;;;;;;19.57;8.97;;;;;;;4.43;68.85;101066.16;10505225;28;21090;-82
2021/12/11 22:43:16;;;;;;;19.87;9.53;;;;;;;4.67;68.10;101066.66;10484642;28;20242;-81
2021/12/11 22:48:22;;;;;;;16.17;9.40;;;;;;;4.67;67.73;101063.88;10508162;28;20234;-82
2021/12/11 22:53:29;;;;;;;15.77;8.43;;;;;;;4.50;68.22;101064.00;10487900;28;20218;-81
2021/12/11 22:58:38;;;;;;;13.40;8.57;;;;;;;4.60;68.29;101080.78;10487676;28;20242;-85
2021/12/11 23:03:48;;;;;;;13.83;7.50;;;;;;;4.87;66.85;101089.09;10449241;28;20247;-81
2021/12/11 23:08:52;;;;;;;13.43;7.17;;;;;;;4.99;66.88;101083.34;10464565;28;20242;-83
2021/12/11 23:13:58;;;;;;;13.93;7.53;;;;;;;4.71;66.71;101079.78;10481053;28;20289;-83
2021/12/11 23:19:12;;;;;;;11.03;6.27;;;;;;;5.01;66.52;101087.56;10484455;28;20235;-83
2021/12/11 23:24:32;;;;;;;13.37;6.47;;;;;;;5.02;65.63;101078.09;10481620;28;20230;-83
2021/12/11 23:30:01;;;;;;;11.17;5.90;;;;;;;5.11;65.29;101064.50;10493928;28;20240;-82
2021/12/11 23:35:09;;;;;;;12.83;5.80;;;;;;;4.95;65.18;101062.69;10490948;28;20520;-83